sensor_id;sensor_type;location;lat;lon;timestamp;temperature;humidity
21092;DHT22;10704;42.678;23.288;2023-07-13T00:00:04;22.60;99.90
21092;DHT22;10704;42.678;23.288;2023-07-13T00:02:40;22.50;99.90
21092;DHT22;10704;42.678;23.288;2023-07-13T00:05:06;22.40;99.90
21092;DHT22;10704;42.678;23.288;2023-07-13T00:07:32;22.40;99.90
21092;DHT22;10704;42.678;23.288;2023-07-13T00:09:58;22.40;99.90
21092;DHT22;10704;42.678;23.288;2023-07-13T00:14:50;22.30;99.90
21092;DHT22;10704;42.678;23.288;2023-07-13T00:17:16;22.20;99.90
21092;DHT22;10704;42.678;23.288;2023-07-13T00:19:42;22.30;99.90
21092;DHT22;10704;42.678;23.288;2023-07-13T00:22:08;22.30;99.90
21092;DHT22;10704;42.678;23.288;2023-07-13T00:24:34;22.40;99.90
21092;DHT22;10704;42.678;23.288;2023-07-13T00:27:01;22.40;99.90
21092;DHT22;10704;42.678;23.288;2023-07-13T00:29:27;22.40;99.90
21092;DHT22;10704;42.678;23.288;2023-07-13T00:31:53;22.50;99.90
21092;DHT22;10704;42.678;23.288;2023-07-13T00:34:19;22.40;99.90
21092;DHT22;10704;42.678;23.288;2023-07-13T00:36:44;22.40;99.90
21092;DHT22;10704;42.678;23.288;2023-07-13T00:39:11;22.40;99.90
21092;DHT22;10704;42.678;23.288;2023-07-13T00:41:37;22.40;99.90
21092;DHT22;10704;42.678;23.288;2023-07-13T00:44:03;22.30;99.90
21092;DHT22;10704;42.678;23.288;2023-07-13T00:46:33;22.20;99.90
21092;DHT22;10704;42.678;23.288;2023-07-13T00:49:05;22.20;99.90
21092;DHT22;10704;42.678;23.288;2023-07-13T00:51:45;22.10;99.90
21092;DHT22;10704;42.678;23.288;2023-07-13T00:54:16;22.10;99.90
21092;DHT22;10704;42.678;23.288;2023-07-13T00:56:46;22.10;99.90
21092;DHT22;10704;42.678;23.288;2023-07-13T00:59:13;22.10;99.90
21092;DHT22;10704;42.678;23.288;2023-07-13T01:01:41;22.00;99.90
21092;DHT22;10704;42.678;23.288;2023-07-13T01:04:07;21.80;99.90
21092;DHT22;10704;42.678;23.288;2023-07-13T01:06:36;21.70;99.90
21092;DHT22;10704;42.678;23.288;2023-07-13T01:09:03;21.60;99.90
21092;DHT22;10704;42.678;23.288;2023-07-13T01:11:29;21.60;99.90
21092;DHT22;10704;42.678;23.288;2023-07-13T01:13:56;21.60;99.90
21092;DHT22;10704;42.678;23.288;2023-07-13T01:16:27;21.60;99.90
21092;DHT22;10704;42.678;23.288;2023-07-13T01:18:56;21.40;99.90
21092;DHT22;10704;42.678;23.288;2023-07-13T01:21:25;21.50;99.90
21092;DHT22;10704;42.678;23.288;2023-07-13T01:23:52;21.50;99.90
21092;DHT22;10704;42.678;23.288;2023-07-13T01:26:18;21.50;99.90
21092;DHT22;10704;42.678;23.288;2023-07-13T01:28:44;21.60;99.90
21092;DHT22;10704;42.678;23.288;2023-07-13T01:31:11;21.50;99.90
21092;DHT22;10704;42.678;23.288;2023-07-13T01:33:38;21.60;99.90
21092;DHT22;10704;42.678;23.288;2023-07-13T01:36:06;21.50;99.90
21092;DHT22;10704;42.678;23.288;2023-07-13T01:38:33;21.40;99.90
21092;DHT22;10704;42.678;23.288;2023-07-13T01:41:00;21.30;99.90
21092;DHT22;10704;42.678;23.288;2023-07-13T01:43:26;21.30;99.90
21092;DHT22;10704;42.678;23.288;2023-07-13T01:45:52;21.40;99.90
21092;DHT22;10704;42.678;23.288;2023-07-13T01:48:18;21.30;99.90
21092;DHT22;10704;42.678;23.288;2023-07-13T01:50:44;21.40;99.90
21092;DHT22;10704;42.678;23.288;2023-07-13T01:53:10;21.30;99.90
21092;DHT22;10704;42.678;23.288;2023-07-13T01:55:36;21.40;99.90
21092;DHT22;10704;42.678;23.288;2023-07-13T01:58:03;21.40;99.90
21092;DHT22;10704;42.678;23.288;2023-07-13T02:00:29;21.30;99.90
21092;DHT22;10704;42.678;23.288;2023-07-13T02:02:55;21.30;99.90
21092;DHT22;10704;42.678;23.288;2023-07-13T02:05:21;21.30;99.90
21092;DHT22;10704;42.678;23.288;2023-07-13T02:07:48;21.30;99.90
21092;DHT22;10704;42.678;23.288;2023-07-13T02:10:14;21.20;99.90
21092;DHT22;10704;42.678;23.288;2023-07-13T02:12:41;21.20;99.90
21092;DHT22;10704;42.678;23.288;2023-07-13T02:15:08;21.10;99.90
21092;DHT22;10704;42.678;23.288;2023-07-13T02:17:35;21.10;99.90
21092;DHT22;10704;42.678;23.288;2023-07-13T02:20:02;21.00;99.90
21092;DHT22;10704;42.678;23.288;2023-07-13T02:22:28;21.00;99.90
21092;DHT22;10704;42.678;23.288;2023-07-13T02:24:56;20.90;99.90
21092;DHT22;10704;42.678;23.288;2023-07-13T02:27:22;20.90;99.90
21092;DHT22;10704;42.678;23.288;2023-07-13T02:29:49;20.90;99.90
21092;DHT22;10704;42.678;23.288;2023-07-13T02:32:17;20.90;99.90
21092;DHT22;10704;42.678;23.288;2023-07-13T02:34:43;21.10;99.90
21092;DHT22;10704;42.678;23.288;2023-07-13T02:37:09;21.00;99.90
21092;DHT22;10704;42.678;23.288;2023-07-13T02:39:35;21.00;99.90
21092;DHT22;10704;42.678;23.288;2023-07-13T02:42:03;20.90;99.90
21092;DHT22;10704;42.678;23.288;2023-07-13T02:44:29;20.80;99.90
21092;DHT22;10704;42.678;23.288;2023-07-13T02:46:55;20.90;99.90
21092;DHT22;10704;42.678;23.288;2023-07-13T02:49:21;20.80;99.90
21092;DHT22;10704;42.678;23.288;2023-07-13T02:51:47;20.80;99.90
21092;DHT22;10704;42.678;23.288;2023-07-13T02:54:13;20.80;99.90
21092;DHT22;10704;42.678;23.288;2023-07-13T02:56:40;20.80;99.90
21092;DHT22;10704;42.678;23.288;2023-07-13T02:59:06;20.70;99.90
21092;DHT22;10704;42.678;23.288;2023-07-13T03:01:32;20.70;99.90
21092;DHT22;10704;42.678;23.288;2023-07-13T03:04:01;20.80;99.90
21092;DHT22;10704;42.678;23.288;2023-07-13T03:06:31;20.70;99.90
21092;DHT22;10704;42.678;23.288;2023-07-13T03:08:57;20.70;99.90
21092;DHT22;10704;42.678;23.288;2023-07-13T03:11:23;20.70;99.90
21092;DHT22;10704;42.678;23.288;2023-07-13T03:14:00;20.80;99.90
21092;DHT22;10704;42.678;23.288;2023-07-13T03:16:28;20.60;99.90
21092;DHT22;10704;42.678;23.288;2023-07-13T03:18:55;20.50;99.90
21092;DHT22;10704;42.678;23.288;2023-07-13T03:21:22;20.50;99.90
21092;DHT22;10704;42.678;23.288;2023-07-13T03:23:48;20.60;99.90
21092;DHT22;10704;42.678;23.288;2023-07-13T03:26:18;20.60;99.90
21092;DHT22;10704;42.678;23.288;2023-07-13T03:28:44;20.60;99.90
21092;DHT22;10704;42.678;23.288;2023-07-13T03:31:18;20.60;99.90
21092;DHT22;10704;42.678;23.288;2023-07-13T03:33:44;20.60;99.90
21092;DHT22;10704;42.678;23.288;2023-07-13T03:36:18;20.70;99.90
21092;DHT22;10704;42.678;23.288;2023-07-13T03:38:58;20.70;99.90
21092;DHT22;10704;42.678;23.288;2023-07-13T03:41:30;20.80;99.90
21092;DHT22;10704;42.678;23.288;2023-07-13T03:43:57;20.90;99.90
21092;DHT22;10704;42.678;23.288;2023-07-13T03:46:25;20.90;99.90
21092;DHT22;10704;42.678;23.288;2023-07-13T03:48:51;21.00;99.90
21092;DHT22;10704;42.678;23.288;2023-07-13T03:51:18;21.00;99.90
21092;DHT22;10704;42.678;23.288;2023-07-13T03:53:45;21.10;99.90
21092;DHT22;10704;42.678;23.288;2023-07-13T03:56:15;21.20;99.90
21092;DHT22;10704;42.678;23.288;2023-07-13T03:58:43;21.20;99.90
21092;DHT22;10704;42.678;23.288;2023-07-13T04:01:20;21.30;99.90
21092;DHT22;10704;42.678;23.288;2023-07-13T04:03:47;21.20;99.90
21092;DHT22;10704;42.678;23.288;2023-07-13T04:06:26;21.30;99.90
21092;DHT22;10704;42.678;23.288;2023-07-13T04:08:54;21.40;99.90
21092;DHT22;10704;42.678;23.288;2023-07-13T04:11:23;21.50;99.90
21092;DHT22;10704;42.678;23.288;2023-07-13T04:13:50;21.60;99.90
21092;DHT22;10704;42.678;23.288;2023-07-13T04:16:17;21.60;99.90
21092;DHT22;10704;42.678;23.288;2023-07-13T04:18:44;21.40;99.90
21092;DHT22;10704;42.678;23.288;2023-07-13T04:21:10;21.50;99.90
21092;DHT22;10704;42.678;23.288;2023-07-13T04:23:37;21.50;99.90
21092;DHT22;10704;42.678;23.288;2023-07-13T04:26:03;21.40;99.90
21092;DHT22;10704;42.678;23.288;2023-07-13T04:28:30;21.70;99.90
21092;DHT22;10704;42.678;23.288;2023-07-13T04:30:56;21.80;99.90
21092;DHT22;10704;42.678;23.288;2023-07-13T04:33:22;22.00;99.90
21092;DHT22;10704;42.678;23.288;2023-07-13T04:35:52;22.10;99.90
21092;DHT22;10704;42.678;23.288;2023-07-13T04:38:27;22.30;99.90
21092;DHT22;10704;42.678;23.288;2023-07-13T04:40:58;22.40;99.90
21092;DHT22;10704;42.678;23.288;2023-07-13T04:43:25;22.60;99.90
21092;DHT22;10704;42.678;23.288;2023-07-13T04:45:52;22.60;99.90
21092;DHT22;10704;42.678;23.288;2023-07-13T04:48:18;22.70;99.90
21092;DHT22;10704;42.678;23.288;2023-07-13T04:50:45;22.70;99.90
21092;DHT22;10704;42.678;23.288;2023-07-13T04:53:11;23.00;99.90
21092;DHT22;10704;42.678;23.288;2023-07-13T04:55:38;23.00;99.90
21092;DHT22;10704;42.678;23.288;2023-07-13T04:58:04;22.90;99.90
21092;DHT22;10704;42.678;23.288;2023-07-13T05:00:31;23.00;99.90
21092;DHT22;10704;42.678;23.288;2023-07-13T05:02:57;23.00;99.90
21092;DHT22;10704;42.678;23.288;2023-07-13T05:05:25;23.10;99.90
21092;DHT22;10704;42.678;23.288;2023-07-13T05:07:51;23.10;99.90
21092;DHT22;10704;42.678;23.288;2023-07-13T05:10:17;23.30;99.90
21092;DHT22;10704;42.678;23.288;2023-07-13T05:12:43;23.30;99.90
21092;DHT22;10704;42.678;23.288;2023-07-13T05:15:10;23.50;99.90
21092;DHT22;10704;42.678;23.288;2023-07-13T05:17:36;23.70;99.90
21092;DHT22;10704;42.678;23.288;2023-07-13T05:20:02;23.80;99.90
21092;DHT22;10704;42.678;23.288;2023-07-13T05:22:28;23.70;99.90
21092;DHT22;10704;42.678;23.288;2023-07-13T05:24:54;23.70;99.90
21092;DHT22;10704;42.678;23.288;2023-07-13T05:27:19;23.70;99.90
21092;DHT22;10704;42.678;23.288;2023-07-13T05:29:45;23.70;99.90
21092;DHT22;10704;42.678;23.288;2023-07-13T05:32:11;23.70;99.90
21092;DHT22;10704;42.678;23.288;2023-07-13T05:34:37;23.80;99.90
21092;DHT22;10704;42.678;23.288;2023-07-13T05:37:03;24.00;99.90
21092;DHT22;10704;42.678;23.288;2023-07-13T05:39:29;24.20;99.90
21092;DHT22;10704;42.678;23.288;2023-07-13T05:41:56;24.30;99.90
21092;DHT22;10704;42.678;23.288;2023-07-13T05:44:21;24.50;99.90
21092;DHT22;10704;42.678;23.288;2023-07-13T05:46:47;24.60;99.90
21092;DHT22;10704;42.678;23.288;2023-07-13T05:49:13;24.70;99.90
21092;DHT22;10704;42.678;23.288;2023-07-13T05:51:39;24.60;99.90
21092;DHT22;10704;42.678;23.288;2023-07-13T05:54:05;24.80;99.90
21092;DHT22;10704;42.678;23.288;2023-07-13T05:56:30;24.90;99.90
21092;DHT22;10704;42.678;23.288;2023-07-13T05:58:56;25.00;99.90
21092;DHT22;10704;42.678;23.288;2023-07-13T06:01:22;24.80;99.90
21092;DHT22;10704;42.678;23.288;2023-07-13T06:03:49;24.90;99.90
21092;DHT22;10704;42.678;23.288;2023-07-13T06:06:16;24.80;99.90
21092;DHT22;10704;42.678;23.288;2023-07-13T06:08:41;24.80;99.90
21092;DHT22;10704;42.678;23.288;2023-07-13T06:11:20;25.10;99.90
21092;DHT22;10704;42.678;23.288;2023-07-13T06:13:46;25.30;99.90
21092;DHT22;10704;42.678;23.288;2023-07-13T06:16:12;25.50;99.90
21092;DHT22;10704;42.678;23.288;2023-07-13T06:18:39;25.50;99.90
21092;DHT22;10704;42.678;23.288;2023-07-13T06:21:11;25.70;99.90
21092;DHT22;10704;42.678;23.288;2023-07-13T06:23:37;25.90;99.90
21092;DHT22;10704;42.678;23.288;2023-07-13T06:26:03;26.00;99.90
21092;DHT22;10704;42.678;23.288;2023-07-13T06:28:30;26.20;99.90
21092;DHT22;10704;42.678;23.288;2023-07-13T06:30:57;26.20;99.90
21092;DHT22;10704;42.678;23.288;2023-07-13T06:33:24;26.30;99.90
21092;DHT22;10704;42.678;23.288;2023-07-13T06:35:50;26.30;99.90
21092;DHT22;10704;42.678;23.288;2023-07-13T06:38:16;26.20;99.90
21092;DHT22;10704;42.678;23.288;2023-07-13T06:40:42;26.30;99.90
21092;DHT22;10704;42.678;23.288;2023-07-13T06:43:08;26.40;99.90
21092;DHT22;10704;42.678;23.288;2023-07-13T06:45:45;26.70;99.90
21092;DHT22;10704;42.678;23.288;2023-07-13T06:48:16;26.80;99.90
21092;DHT22;10704;42.678;23.288;2023-07-13T06:50:42;26.90;99.90
21092;DHT22;10704;42.678;23.288;2023-07-13T06:53:09;26.70;99.90
21092;DHT22;10704;42.678;23.288;2023-07-13T06:55:35;27.00;99.90
21092;DHT22;10704;42.678;23.288;2023-07-13T06:58:01;26.90;99.90
21092;DHT22;10704;42.678;23.288;2023-07-13T07:00:27;27.10;99.90
21092;DHT22;10704;42.678;23.288;2023-07-13T07:02:53;27.40;99.90
21092;DHT22;10704;42.678;23.288;2023-07-13T07:05:19;27.60;99.90
21092;DHT22;10704;42.678;23.288;2023-07-13T07:07:51;27.60;99.90
21092;DHT22;10704;42.678;23.288;2023-07-13T07:10:18;27.70;99.90
21092;DHT22;10704;42.678;23.288;2023-07-13T07:12:44;27.70;99.90
21092;DHT22;10704;42.678;23.288;2023-07-13T07:15:10;27.70;99.90
21092;DHT22;10704;42.678;23.288;2023-07-13T07:17:37;27.80;99.90
21092;DHT22;10704;42.678;23.288;2023-07-13T07:20:03;28.10;99.90
21092;DHT22;10704;42.678;23.288;2023-07-13T07:22:29;28.30;99.90
21092;DHT22;10704;42.678;23.288;2023-07-13T07:24:56;28.50;99.90
21092;DHT22;10704;42.678;23.288;2023-07-13T07:27:23;28.60;99.90
21092;DHT22;10704;42.678;23.288;2023-07-13T07:29:49;28.90;98.90
21092;DHT22;10704;42.678;23.288;2023-07-13T07:32:15;29.00;98.50
21092;DHT22;10704;42.678;23.288;2023-07-13T07:34:41;29.30;97.90
21092;DHT22;10704;42.678;23.288;2023-07-13T07:37:09;29.30;96.80
21092;DHT22;10704;42.678;23.288;2023-07-13T07:39:36;29.50;96.80
21092;DHT22;10704;42.678;23.288;2023-07-13T07:42:02;29.80;95.00
21092;DHT22;10704;42.678;23.288;2023-07-13T07:44:28;29.80;93.70
21092;DHT22;10704;42.678;23.288;2023-07-13T07:46:54;29.60;93.10
21092;DHT22;10704;42.678;23.288;2023-07-13T07:49:20;29.30;93.70
21092;DHT22;10704;42.678;23.288;2023-07-13T07:51:46;29.40;94.50
21092;DHT22;10704;42.678;23.288;2023-07-13T07:54:12;29.90;93.80
21092;DHT22;10704;42.678;23.288;2023-07-13T07:56:38;30.20;92.80
21092;DHT22;10704;42.678;23.288;2023-07-13T07:59:04;30.20;92.70
21092;DHT22;10704;42.678;23.288;2023-07-13T08:01:30;30.50;92.20
21092;DHT22;10704;42.678;23.288;2023-07-13T08:03:56;30.40;91.80
21092;DHT22;10704;42.678;23.288;2023-07-13T08:06:22;30.60;91.30
21092;DHT22;10704;42.678;23.288;2023-07-13T08:08:48;30.60;91.00
21092;DHT22;10704;42.678;23.288;2023-07-13T08:11:14;30.70;89.90
21092;DHT22;10704;42.678;23.288;2023-07-13T08:13:40;30.70;90.10
21092;DHT22;10704;42.678;23.288;2023-07-13T08:16:06;30.60;89.40
21092;DHT22;10704;42.678;23.288;2023-07-13T08:18:32;30.60;88.80
21092;DHT22;10704;42.678;23.288;2023-07-13T08:21:02;31.10;88.90
21092;DHT22;10704;42.678;23.288;2023-07-13T08:23:28;31.50;87.10
21092;DHT22;10704;42.678;23.288;2023-07-13T08:25:54;31.40;87.00
21092;DHT22;10704;42.678;23.288;2023-07-13T08:28:21;31.70;86.90
21092;DHT22;10704;42.678;23.288;2023-07-13T08:30:47;32.10;84.10
21092;DHT22;10704;42.678;23.288;2023-07-13T08:33:22;32.20;82.60
21092;DHT22;10704;42.678;23.288;2023-07-13T08:35:50;32.20;83.40
21092;DHT22;10704;42.678;23.288;2023-07-13T08:38:17;32.80;81.80
21092;DHT22;10704;42.678;23.288;2023-07-13T08:40:43;33.10;79.00
21092;DHT22;10704;42.678;23.288;2023-07-13T08:43:19;33.20;78.50
21092;DHT22;10704;42.678;23.288;2023-07-13T08:45:51;32.80;77.20
21092;DHT22;10704;42.678;23.288;2023-07-13T08:48:26;32.70;78.10
21092;DHT22;10704;42.678;23.288;2023-07-13T08:53:47;33.40;77.30
21092;DHT22;10704;42.678;23.288;2023-07-13T08:56:19;33.60;74.70
21092;DHT22;10704;42.678;23.288;2023-07-13T08:58:50;33.20;74.70
21092;DHT22;10704;42.678;23.288;2023-07-13T09:04:09;33.70;74.70
21092;DHT22;10704;42.678;23.288;2023-07-13T09:09:55;34.20;73.00
21092;DHT22;10704;42.678;23.288;2023-07-13T09:15:02;35.70;68.10
21092;DHT22;10704;42.678;23.288;2023-07-13T09:17:36;35.70;67.00
21092;DHT22;10704;42.678;23.288;2023-07-13T09:20:14;35.50;66.60
21092;DHT22;10704;42.678;23.288;2023-07-13T09:22:43;35.40;67.30
21092;DHT22;10704;42.678;23.288;2023-07-13T09:25:30;35.90;67.00
21092;DHT22;10704;42.678;23.288;2023-07-13T09:28:02;36.30;64.70
21092;DHT22;10704;42.678;23.288;2023-07-13T09:33:13;36.50;64.40
21092;DHT22;10704;42.678;23.288;2023-07-13T09:35:40;36.80;62.90
21092;DHT22;10704;42.678;23.288;2023-07-13T09:38:14;36.70;62.60
21092;DHT22;10704;42.678;23.288;2023-07-13T09:43:14;37.60;61.40
21092;DHT22;10704;42.678;23.288;2023-07-13T09:45:40;37.80;61.10
21092;DHT22;10704;42.678;23.288;2023-07-13T09:48:11;38.00;61.00
21092;DHT22;10704;42.678;23.288;2023-07-13T09:50:39;38.50;59.60
21092;DHT22;10704;42.678;23.288;2023-07-13T09:53:18;38.80;58.10
21092;DHT22;10704;42.678;23.288;2023-07-13T09:55:48;38.80;57.10
21092;DHT22;10704;42.678;23.288;2023-07-13T09:58:20;38.00;55.90
21092;DHT22;10704;42.678;23.288;2023-07-13T10:00:59;38.10;56.70
21092;DHT22;10704;42.678;23.288;2023-07-13T10:03:31;37.70;51.50
21092;DHT22;10704;42.678;23.288;2023-07-13T10:06:16;38.10;50.00
21092;DHT22;10704;42.678;23.288;2023-07-13T10:08:43;37.40;49.30
21092;DHT22;10704;42.678;23.288;2023-07-13T10:13:42;37.70;48.10
21092;DHT22;10704;42.678;23.288;2023-07-13T10:16:09;37.50;46.90
21092;DHT22;10704;42.678;23.288;2023-07-13T10:19:19;36.80;47.70
21092;DHT22;10704;42.678;23.288;2023-07-13T10:24:22;36.40;47.80
21092;DHT22;10704;42.678;23.288;2023-07-13T10:29:22;37.30;48.00
21092;DHT22;10704;42.678;23.288;2023-07-13T10:31:49;38.10;46.00
21092;DHT22;10704;42.678;23.288;2023-07-13T10:34:15;36.70;46.80
21092;DHT22;10704;42.678;23.288;2023-07-13T10:36:44;36.70;47.30
21092;DHT22;10704;42.678;23.288;2023-07-13T10:39:20;37.60;47.40
21092;DHT22;10704;42.678;23.288;2023-07-13T10:42:01;37.80;47.60
21092;DHT22;10704;42.678;23.288;2023-07-13T10:44:31;37.90;46.70
21092;DHT22;10704;42.678;23.288;2023-07-13T10:47:00;38.40;47.20
21092;DHT22;10704;42.678;23.288;2023-07-13T10:49:31;38.90;45.90
21092;DHT22;10704;42.678;23.288;2023-07-13T10:51:58;38.50;45.10
21092;DHT22;10704;42.678;23.288;2023-07-13T10:54:33;37.80;45.80
21092;DHT22;10704;42.678;23.288;2023-07-13T10:57:21;37.80;45.30
21092;DHT22;10704;42.678;23.288;2023-07-13T11:00:14;37.00;46.60
21092;DHT22;10704;42.678;23.288;2023-07-13T11:02:40;37.40;47.10
21092;DHT22;10704;42.678;23.288;2023-07-13T11:05:28;38.00;46.60
21092;DHT22;10704;42.678;23.288;2023-07-13T11:14:05;37.70;45.10
21092;DHT22;10704;42.678;23.288;2023-07-13T11:22:10;37.30;46.40
21092;DHT22;10704;42.678;23.288;2023-07-13T11:32:51;38.20;46.70
21092;DHT22;10704;42.678;23.288;2023-07-13T11:35:23;37.80;46.20
21092;DHT22;10704;42.678;23.288;2023-07-13T11:37:51;37.40;47.30
21092;DHT22;10704;42.678;23.288;2023-07-13T11:40:18;37.80;47.20
21092;DHT22;10704;42.678;23.288;2023-07-13T11:42:44;37.50;46.90
21092;DHT22;10704;42.678;23.288;2023-07-13T11:45:22;37.40;47.60
21092;DHT22;10704;42.678;23.288;2023-07-13T11:47:49;36.70;48.50
21092;DHT22;10704;42.678;23.288;2023-07-13T11:50:20;36.80;49.20
21092;DHT22;10704;42.678;23.288;2023-07-13T11:52:47;37.70;48.10
21092;DHT22;10704;42.678;23.288;2023-07-13T11:55:18;36.70;46.90
21092;DHT22;10704;42.678;23.288;2023-07-13T11:58:00;36.30;48.50
21092;DHT22;10704;42.678;23.288;2023-07-13T12:00:29;36.70;47.30
21092;DHT22;10704;42.678;23.288;2023-07-13T12:02:59;36.70;47.60
21092;DHT22;10704;42.678;23.288;2023-07-13T12:05:26;36.80;46.60
21092;DHT22;10704;42.678;23.288;2023-07-13T12:07:53;37.00;46.80
21092;DHT22;10704;42.678;23.288;2023-07-13T12:10:26;36.80;46.60
21092;DHT22;10704;42.678;23.288;2023-07-13T12:13:04;37.30;45.10
21092;DHT22;10704;42.678;23.288;2023-07-13T12:15:45;37.20;44.90
21092;DHT22;10704;42.678;23.288;2023-07-13T12:18:21;37.00;46.40
21092;DHT22;10704;42.678;23.288;2023-07-13T12:20:49;36.80;45.60
21092;DHT22;10704;42.678;23.288;2023-07-13T12:23:36;36.60;45.70
21092;DHT22;10704;42.678;23.288;2023-07-13T12:26:04;36.40;46.10
21092;DHT22;10704;42.678;23.288;2023-07-13T12:28:40;36.60;46.50
21092;DHT22;10704;42.678;23.288;2023-07-13T12:33:59;37.40;45.10
21092;DHT22;10704;42.678;23.288;2023-07-13T12:36:25;37.10;45.20
21092;DHT22;10704;42.678;23.288;2023-07-13T12:38:51;37.30;46.10
21092;DHT22;10704;42.678;23.288;2023-07-13T12:41:18;37.80;45.80
21092;DHT22;10704;42.678;23.288;2023-07-13T12:43:45;37.80;44.70
21092;DHT22;10704;42.678;23.288;2023-07-13T12:46:23;36.80;46.20
21092;DHT22;10704;42.678;23.288;2023-07-13T12:48:53;36.60;45.80
21092;DHT22;10704;42.678;23.288;2023-07-13T12:51:25;36.70;46.00
21092;DHT22;10704;42.678;23.288;2023-07-13T12:54:11;37.20;45.00
21092;DHT22;10704;42.678;23.288;2023-07-13T12:56:38;37.30;44.10
21092;DHT22;10704;42.678;23.288;2023-07-13T12:59:05;38.10;44.30
21092;DHT22;10704;42.678;23.288;2023-07-13T13:01:34;38.40;44.00
21092;DHT22;10704;42.678;23.288;2023-07-13T13:04:03;38.60;43.60
21092;DHT22;10704;42.678;23.288;2023-07-13T13:06:34;37.20;44.10
21092;DHT22;10704;42.678;23.288;2023-07-13T13:09:02;36.70;45.00
21092;DHT22;10704;42.678;23.288;2023-07-13T13:11:31;36.70;44.80
21092;DHT22;10704;42.678;23.288;2023-07-13T13:13:57;36.60;45.30
21092;DHT22;10704;42.678;23.288;2023-07-13T13:18:53;36.60;45.10
21092;DHT22;10704;42.678;23.288;2023-07-13T13:21:20;36.70;45.60
21092;DHT22;10704;42.678;23.288;2023-07-13T13:23:46;36.90;45.50
21092;DHT22;10704;42.678;23.288;2023-07-13T13:26:14;37.10;46.00
21092;DHT22;10704;42.678;23.288;2023-07-13T13:28:42;37.20;44.40
21092;DHT22;10704;42.678;23.288;2023-07-13T13:31:08;37.10;45.50
21092;DHT22;10704;42.678;23.288;2023-07-13T13:33:39;37.20;45.10
21092;DHT22;10704;42.678;23.288;2023-07-13T13:36:19;37.10;45.10
21092;DHT22;10704;42.678;23.288;2023-07-13T13:38:48;37.50;44.70
21092;DHT22;10704;42.678;23.288;2023-07-13T13:41:15;37.50;43.90
21092;DHT22;10704;42.678;23.288;2023-07-13T13:43:42;37.70;43.90
21092;DHT22;10704;42.678;23.288;2023-07-13T13:46:21;37.40;43.90
21092;DHT22;10704;42.678;23.288;2023-07-13T13:48:48;37.30;44.50
21092;DHT22;10704;42.678;23.288;2023-07-13T13:51:19;37.50;44.90
21092;DHT22;10704;42.678;23.288;2023-07-13T13:53:46;37.30;44.40
21092;DHT22;10704;42.678;23.288;2023-07-13T13:56:13;37.10;44.70
21092;DHT22;10704;42.678;23.288;2023-07-13T13:58:40;37.10;44.40
21092;DHT22;10704;42.678;23.288;2023-07-13T14:01:27;37.10;45.40
21092;DHT22;10704;42.678;23.288;2023-07-13T14:03:54;37.40;45.20
21092;DHT22;10704;42.678;23.288;2023-07-13T14:06:20;37.00;45.00
21092;DHT22;10704;42.678;23.288;2023-07-13T14:08:46;36.70;45.60
21092;DHT22;10704;42.678;23.288;2023-07-13T14:11:14;36.80;45.90
21092;DHT22;10704;42.678;23.288;2023-07-13T14:13:44;36.80;46.20
21092;DHT22;10704;42.678;23.288;2023-07-13T14:16:15;36.80;45.50
21092;DHT22;10704;42.678;23.288;2023-07-13T14:18:44;36.90;46.60
21092;DHT22;10704;42.678;23.288;2023-07-13T14:21:19;37.00;46.50
21092;DHT22;10704;42.678;23.288;2023-07-13T14:23:45;36.90;46.00
21092;DHT22;10704;42.678;23.288;2023-07-13T14:26:14;37.20;45.20
21092;DHT22;10704;42.678;23.288;2023-07-13T14:28:46;37.70;45.20
21092;DHT22;10704;42.678;23.288;2023-07-13T14:31:14;37.50;45.70
21092;DHT22;10704;42.678;23.288;2023-07-13T14:33:40;37.40;46.20
21092;DHT22;10704;42.678;23.288;2023-07-13T14:36:31;37.20;47.00
21092;DHT22;10704;42.678;23.288;2023-07-13T14:38:59;37.40;46.50
21092;DHT22;10704;42.678;23.288;2023-07-13T14:41:26;37.20;46.90
21092;DHT22;10704;42.678;23.288;2023-07-13T14:43:52;37.20;46.80
21092;DHT22;10704;42.678;23.288;2023-07-13T14:46:31;37.20;47.00
21092;DHT22;10704;42.678;23.288;2023-07-13T14:49:05;37.30;47.50
21092;DHT22;10704;42.678;23.288;2023-07-13T14:51:32;37.00;47.40
21092;DHT22;10704;42.678;23.288;2023-07-13T14:54:02;36.70;48.10
21092;DHT22;10704;42.678;23.288;2023-07-13T14:56:28;36.60;48.60
21092;DHT22;10704;42.678;23.288;2023-07-13T14:58:54;36.60;48.70
21092;DHT22;10704;42.678;23.288;2023-07-13T15:01:21;36.70;48.80
21092;DHT22;10704;42.678;23.288;2023-07-13T15:03:50;36.70;48.20
21092;DHT22;10704;42.678;23.288;2023-07-13T15:06:16;36.60;48.70
21092;DHT22;10704;42.678;23.288;2023-07-13T15:08:43;36.90;48.50
21092;DHT22;10704;42.678;23.288;2023-07-13T15:11:09;37.40;48.30
21092;DHT22;10704;42.678;23.288;2023-07-13T15:13:38;37.30;48.40
21092;DHT22;10704;42.678;23.288;2023-07-13T15:16:14;37.00;49.30
21092;DHT22;10704;42.678;23.288;2023-07-13T15:18:40;37.40;48.20
21092;DHT22;10704;42.678;23.288;2023-07-13T15:21:10;37.00;47.50
21092;DHT22;10704;42.678;23.288;2023-07-13T15:23:36;37.10;48.30
21092;DHT22;10704;42.678;23.288;2023-07-13T15:26:02;37.30;47.70
21092;DHT22;10704;42.678;23.288;2023-07-13T15:28:29;37.00;47.60
21092;DHT22;10704;42.678;23.288;2023-07-13T15:30:55;37.20;47.90
21092;DHT22;10704;42.678;23.288;2023-07-13T15:33:28;37.20;47.90
21092;DHT22;10704;42.678;23.288;2023-07-13T15:35:54;37.40;48.00
21092;DHT22;10704;42.678;23.288;2023-07-13T15:38:23;37.30;48.50
21092;DHT22;10704;42.678;23.288;2023-07-13T15:40:51;37.00;48.30
21092;DHT22;10704;42.678;23.288;2023-07-13T15:43:18;36.70;48.60
21092;DHT22;10704;42.678;23.288;2023-07-13T15:45:45;36.40;49.70
21092;DHT22;10704;42.678;23.288;2023-07-13T15:48:17;36.40;49.50
21092;DHT22;10704;42.678;23.288;2023-07-13T15:50:55;36.20;49.60
21092;DHT22;10704;42.678;23.288;2023-07-13T15:53:29;36.00;50.00
21092;DHT22;10704;42.678;23.288;2023-07-13T15:55:56;36.40;50.10
21092;DHT22;10704;42.678;23.288;2023-07-13T15:58:22;36.60;49.50
21092;DHT22;10704;42.678;23.288;2023-07-13T16:00:48;36.70;49.70
21092;DHT22;10704;42.678;23.288;2023-07-13T16:03:19;36.50;50.50
21092;DHT22;10704;42.678;23.288;2023-07-13T16:05:45;36.10;50.70
21092;DHT22;10704;42.678;23.288;2023-07-13T16:08:27;35.80;51.20
21092;DHT22;10704;42.678;23.288;2023-07-13T16:10:56;35.80;51.90
21092;DHT22;10704;42.678;23.288;2023-07-13T16:13:22;35.90;52.20
21092;DHT22;10704;42.678;23.288;2023-07-13T16:15:50;36.00;51.50